OJAI/AMM METAR and TAF weather

Enter ICAO airport designator
Station Type Date Time Source
OJAI METAR 2019/08/17 11:00 UTC NOAA

OJAI 171100Z 27012KT 6000 NSC 32/15 Q1011 NOSIG


Station Type Date Time Source
OJAI Decoded METAR 2019/08/17 11:00 UTC NOAA

Station name not available
Aug 17, 2019 - 07:00 AM EDT / 2019.08.17 1100 UTC
Wind: from the W (270 degrees) at 14 MPH (12 KT):0
Visibility: 3 mile(s):0
Temperature: 89 F (32 C)
Dew Point: 59 F (15 C)
Relative Humidity: 35%
Pressure (altimeter): 29.85 in. Hg (1011 hPa)
ob: OJAI 171100Z 27012KT 6000 NSC 32/15 Q1011 NOSIG
cycle: 11

Station Type Date Time Source
OJAI TAF 2019/08/17 06:13 UTC NOAA

TAF OJAI 170411Z 1706/1812 27010KT 5000 HZ NSC PROB30 1706/1710 FEW030

Example: see airport list